Terminal Aerodrome Forecast
Issued by NWS Sterling, VA

Current Version | Previous Version | Graphics & Text | Print | Product List | Glossary On
Versions: 1 2 3 4 5 6 7 8 9 10 11 12 13 14 15 16 17 18 19 20 21 22
148
FTUS41 KLWX 201131
TAFIAD
TAF
KIAD 201131Z 2012/2118 36008KT P6SM FEW050
     FM201500 35007KT P6SM SCT050
     FM210000 VRB03KT P6SM SCT200
     FM211500 VRB04KT P6SM SCT050=

USA.gov is the U.S. government's official web portal to all federal, state and local government web resources and services.